VRN8715 GCXO-SBGR
Flight info
| Callsign | VRN8715 |
|---|---|
| Flight time | N/A |
| Altitude | 30000 |
| Route | HIE DCT ORVEK/N0487F340 N866 TENPA UN866 AMDOL/N0490F350 UN866 DEKON/N0487F360 UN866 ARTIG UZ18 ROLID UN741 ERUGU UZ61 GERTI/N0484F380 UZ61 REDAD UZ21 VUNOX |
| Aircraft | MD11/H-SDE1E2E3FGHIJ2J3J4J5M1RWXY/LB1D1 |
Departure
| Time | 2026-04-29 05:15 |
|---|---|
| Airport | Tenerife Norte-Ciudad de La Laguna Airport (GCXO) |
Arrival
| Time | N/A |
|---|---|
| Airport | São Paulo/Guarulhos–Governor André Franco Montoro International Airport (SBGR) |
| Time | Latitude | Longitude | Altitude | Speed | Heading |
|---|---|---|---|---|---|
| 2026-04-29 04:34 | 28.48727 | -16.34838 | 2078 ft | 0 kts | 57° |
| 2026-04-29 05:06 | 28.48728 | -16.34835 | 2076 ft | 0 kts | 68° |
| 2026-04-29 05:06 | 28.48727 | -16.34833 | 2076 ft | 0 kts | 79° |
| 2026-04-29 05:06 | 28.48726 | -16.34830 | 2076 ft | 1 kts | 96° |
| 2026-04-29 05:07 | 28.48722 | -16.34824 | 2077 ft | 1 kts | 117° |
| 2026-04-29 05:07 | 28.48717 | -16.34821 | 2075 ft | 1 kts | 143° |
| 2026-04-29 05:07 | 28.48712 | -16.34821 | 2076 ft | 1 kts | 169° |
| 2026-04-29 05:07 | 28.48709 | -16.34823 | 2076 ft | 1 kts | 189° |
| 2026-04-29 05:08 | 28.48700 | -16.34830 | 2078 ft | 4 kts | 205° |
| 2026-04-29 05:08 | 28.48644 | -16.34851 | 2077 ft | 10 kts | 176° |
| 2026-04-29 05:08 | 28.48595 | -16.34790 | 2077 ft | 13 kts | 116° |
| 2026-04-29 05:08 | 28.48554 | -16.34675 | 2075 ft | 18 kts | 111° |
| 2026-04-29 05:09 | 28.48511 | -16.34550 | 2072 ft | 20 kts | 111° |
| 2026-04-29 05:09 | 28.48462 | -16.34395 | 2072 ft | 22 kts | 108° |
| 2026-04-29 05:09 | 28.48408 | -16.34226 | 2069 ft | 23 kts | 110° |
| 2026-04-29 05:09 | 28.48352 | -16.34059 | 2065 ft | 23 kts | 111° |
| 2026-04-29 05:10 | 28.48293 | -16.33887 | 2058 ft | 24 kts | 111° |
| 2026-04-29 05:10 | 28.48232 | -16.33710 | 2051 ft | 25 kts | 110° |
| 2026-04-29 05:10 | 28.48173 | -16.33520 | 2048 ft | 26 kts | 110° |
| 2026-04-29 05:10 | 28.48110 | -16.33329 | 2043 ft | 26 kts | 110° |
| 2026-04-29 05:11 | 28.48049 | -16.33147 | 2039 ft | 23 kts | 110° |
| 2026-04-29 05:11 | 28.47995 | -16.32983 | 2036 ft | 21 kts | 110° |
| 2026-04-29 05:11 | 28.47953 | -16.32859 | 2033 ft | 15 kts | 111° |
| 2026-04-29 05:11 | 28.47917 | -16.32753 | 2032 ft | 14 kts | 111° |
| 2026-04-29 05:12 | 28.47885 | -16.32660 | 2016 ft | 12 kts | 111° |
| 2026-04-29 05:12 | 28.47850 | -16.32581 | 2014 ft | 11 kts | 128° |
| 2026-04-29 05:12 | 28.47791 | -16.32542 | 2016 ft | 9 kts | 167° |
| 2026-04-29 05:12 | 28.47753 | -16.32560 | 2016 ft | 3 kts | 238° |
| 2026-04-29 05:13 | 28.47752 | -16.32589 | 2015 ft | 4 kts | 277° |
| 2026-04-29 05:13 | 28.47757 | -16.32615 | 2014 ft | 2 kts | 287° |
| 2026-04-29 05:13 | 28.47759 | -16.32619 | 2015 ft | 0 kts | 289° |
| 2026-04-29 05:13 | 28.47766 | -16.32643 | 2016 ft | 11 kts | 289° |
| 2026-04-29 05:14 | 28.47827 | -16.32838 | 2027 ft | 45 kts | 290° |
| 2026-04-29 05:14 | 28.48027 | -16.33435 | 2044 ft | 116 kts | 290° |
| 2026-04-29 05:14 | 28.48380 | -16.34493 | 2074 ft | 169 kts | 291° |
| 2026-04-29 05:14 | 28.48822 | -16.35794 | 2545 ft | 176 kts | 290° |
| 2026-04-29 05:15 | 28.49252 | -16.37113 | 3265 ft | 182 kts | 290° |
| 2026-04-29 05:15 | 28.49701 | -16.38511 | 3740 ft | 197 kts | 290° |
| 2026-04-29 05:15 | 28.50156 | -16.39936 | 4574 ft | 187 kts | 289° |
| 2026-04-29 05:15 | 28.50606 | -16.41345 | 5142 ft | 195 kts | 289° |
| 2026-04-29 05:16 | 28.51064 | -16.42844 | 5646 ft | 204 kts | 288° |
| 2026-04-29 05:16 | 28.51547 | -16.44420 | 5973 ft | 216 kts | 287° |
| 2026-04-29 05:16 | 28.51855 | -16.46148 | 6248 ft | 239 kts | 271° |
| 2026-04-29 05:16 | 28.51803 | -16.48117 | 6419 ft | 261 kts | 265° |
| 2026-04-29 05:17 | 28.51653 | -16.50256 | 6896 ft | 272 kts | 264° |
| 2026-04-29 05:17 | 28.51483 | -16.52402 | 7777 ft | 275 kts | 264° |
| 2026-04-29 05:17 | 28.51304 | -16.54581 | 8653 ft | 279 kts | 264° |
| 2026-04-29 05:17 | 28.51123 | -16.56759 | 9498 ft | 283 kts | 264° |
| 2026-04-29 05:18 | 28.50947 | -16.58844 | 10203 ft | 290 kts | 264° |
| 2026-04-29 05:18 | 28.50746 | -16.61214 | 10341 ft | 319 kts | 264° |
| 2026-04-29 05:18 | 28.50522 | -16.63835 | 10472 ft | 347 kts | 264° |
| 2026-04-29 05:18 | 28.50284 | -16.66611 | 11139 ft | 355 kts | 264° |
| 2026-04-29 05:19 | 28.50041 | -16.69434 | 11998 ft | 357 kts | 264° |
| 2026-04-29 05:19 | 28.49800 | -16.72235 | 12845 ft | 360 kts | 264° |
| 2026-04-29 05:19 | 28.49552 | -16.75094 | 13664 ft | 363 kts | 264° |
| 2026-04-29 05:19 | 28.49303 | -16.77961 | 14285 ft | 369 kts | 264° |
| 2026-04-29 05:20 | 28.49052 | -16.80841 | 14595 ft | 367 kts | 264° |
| 2026-04-29 05:20 | 28.48800 | -16.83718 | 13814 ft | 367 kts | 264° |
| 2026-04-29 05:20 | 28.48543 | -16.86614 | 13054 ft | 364 kts | 264° |
| 2026-04-29 05:20 | 28.48291 | -16.89466 | 12320 ft | 362 kts | 264° |
| 2026-04-29 05:21 | 28.48043 | -16.92274 | 11612 ft | 360 kts | 264° |
| 2026-04-29 05:21 | 28.47795 | -16.95090 | 10912 ft | 357 kts | 264° |
| 2026-04-29 05:21 | 28.47548 | -16.97890 | 10247 ft | 355 kts | 264° |
| 2026-04-29 05:21 | 28.47300 | -17.00709 | 9547 ft | 354 kts | 264° |
| 2026-04-29 05:22 | 28.47056 | -17.03468 | 8884 ft | 350 kts | 264° |
| 2026-04-29 05:22 | 28.46815 | -17.06193 | 8301 ft | 345 kts | 264° |
| 2026-04-29 05:22 | 28.46573 | -17.08922 | 7940 ft | 345 kts | 264° |
| 2026-04-29 05:22 | 28.46334 | -17.11610 | 7569 ft | 343 kts | 264° |
| 2026-04-29 05:23 | 28.46097 | -17.14277 | 7214 ft | 341 kts | 264° |
| 2026-04-29 05:23 | 28.45857 | -17.16960 | 7041 ft | 339 kts | 264° |
| 2026-04-29 05:23 | 28.45494 | -17.19614 | 7012 ft | 339 kts | 253° |
| 2026-04-29 05:23 | 28.44364 | -17.21928 | 7542 ft | 336 kts | 230° |
| 2026-04-29 05:24 | 28.42762 | -17.23882 | 8501 ft | 343 kts | 225° |
| 2026-04-29 05:24 | 28.41022 | -17.25749 | 9432 ft | 348 kts | 223° |
| 2026-04-29 05:24 | 28.39207 | -17.27640 | 10297 ft | 353 kts | 223° |
| 2026-04-29 05:24 | 28.37397 | -17.29529 | 11182 ft | 356 kts | 223° |
| 2026-04-29 05:25 | 28.35585 | -17.31437 | 12039 ft | 359 kts | 224° |
| 2026-04-29 05:25 | 28.33758 | -17.33376 | 12890 ft | 361 kts | 224° |
| 2026-04-29 05:25 | 28.31920 | -17.35337 | 13717 ft | 364 kts | 224° |
| 2026-04-29 05:25 | 28.30078 | -17.37310 | 14411 ft | 367 kts | 224° |
| 2026-04-29 05:26 | 28.28200 | -17.39324 | 15100 ft | 370 kts | 225° |
| 2026-04-29 05:26 | 28.26331 | -17.41329 | 15749 ft | 374 kts | 225° |
| 2026-04-29 05:26 | 28.24443 | -17.43355 | 16394 ft | 377 kts | 225° |
| 2026-04-29 05:26 | 28.22513 | -17.45425 | 17031 ft | 380 kts | 225° |
| 2026-04-29 05:27 | 28.20596 | -17.47480 | 17663 ft | 384 kts | 225° |
| 2026-04-29 05:27 | 28.16684 | -17.51670 | 18786 ft | 390 kts | 225° |
| 2026-04-29 05:27 | 28.14698 | -17.53795 | 19286 ft | 394 kts | 225° |
| 2026-04-29 05:28 | 28.12694 | -17.55940 | 19771 ft | 397 kts | 225° |
| 2026-04-29 05:28 | 28.10701 | -17.58070 | 20237 ft | 400 kts | 225° |
| 2026-04-29 05:28 | 28.08669 | -17.60241 | 20728 ft | 402 kts | 225° |
| 2026-04-29 05:28 | 28.06628 | -17.62420 | 21281 ft | 404 kts | 225° |
| 2026-04-29 05:29 | 28.04575 | -17.64612 | 21782 ft | 407 kts | 225° |
| 2026-04-29 05:29 | 28.02503 | -17.66823 | 22289 ft | 410 kts | 225° |
| 2026-04-29 05:29 | 28.00421 | -17.69042 | 22802 ft | 414 kts | 225° |
| 2026-04-29 05:29 | 27.98317 | -17.71285 | 23320 ft | 417 kts | 225° |
| 2026-04-29 05:30 | 27.96197 | -17.73543 | 23805 ft | 420 kts | 225° |
| 2026-04-29 05:30 | 27.94063 | -17.75814 | 24281 ft | 422 kts | 225° |
| 2026-04-29 05:30 | 27.91912 | -17.78101 | 24745 ft | 425 kts | 225° |
| 2026-04-29 05:30 | 27.89746 | -17.80404 | 25210 ft | 428 kts | 225° |
| 2026-04-29 05:31 | 27.87568 | -17.82718 | 25635 ft | 431 kts | 225° |
| 2026-04-29 05:31 | 27.85401 | -17.85019 | 26092 ft | 434 kts | 225° |
| 2026-04-29 05:31 | 27.83076 | -17.87227 | 26508 ft | 439 kts | 217° |
| 2026-04-29 05:31 | 27.80432 | -17.88997 | 26961 ft | 445 kts | 210° |
| 2026-04-29 05:32 | 27.77624 | -17.90509 | 27389 ft | 449 kts | 207° |
| 2026-04-29 05:32 | 27.74755 | -17.91924 | 27867 ft | 451 kts | 206° |
| 2026-04-29 05:32 | 27.71856 | -17.93333 | 28311 ft | 454 kts | 206° |
| 2026-04-29 05:32 | 27.68944 | -17.94770 | 28727 ft | 457 kts | 206° |
| 2026-04-29 05:33 | 27.66026 | -17.96237 | 29139 ft | 460 kts | 207° |
| 2026-04-29 05:33 | 27.63106 | -17.97726 | 29548 ft | 461 kts | 207° |
| 2026-04-29 05:33 | 27.60180 | -17.99231 | 29893 ft | 465 kts | 207° |
| 2026-04-29 05:33 | 27.57251 | -18.00743 | 29970 ft | 468 kts | 207° |
| 2026-04-29 05:34 | 27.51300 | -18.03817 | 29992 ft | 470 kts | 207° |
| 2026-04-29 05:34 | 27.45319 | -18.06900 | 30460 ft | 472 kts | 207° |
| 2026-04-29 05:35 | 27.42373 | -18.08417 | 30915 ft | 470 kts | 207° |
| 2026-04-29 05:35 | 27.39407 | -18.09942 | 31372 ft | 468 kts | 207° |
| 2026-04-29 05:35 | 27.36445 | -18.11464 | 31816 ft | 466 kts | 208° |
| 2026-04-29 05:35 | 27.33506 | -18.12974 | 32232 ft | 464 kts | 208° |
| 2026-04-29 05:36 | 27.30558 | -18.14488 | 32631 ft | 463 kts | 208° |
| 2026-04-29 05:36 | 27.27661 | -18.15975 | 33021 ft | 462 kts | 208° |
| 2026-04-29 05:36 | 27.24742 | -18.17472 | 33404 ft | 460 kts | 208° |
| 2026-04-29 05:36 | 27.21831 | -18.18965 | 33775 ft | 459 kts | 208° |
| 2026-04-29 05:37 | 27.18930 | -18.20452 | 34116 ft | 458 kts | 208° |
| 2026-04-29 05:37 | 27.16034 | -18.21935 | 34411 ft | 456 kts | 208° |
| 2026-04-29 05:37 | 27.13150 | -18.23411 | 34687 ft | 455 kts | 209° |
| 2026-04-29 05:37 | 27.10268 | -18.24885 | 34938 ft | 455 kts | 209° |
| 2026-04-29 05:38 | 27.04501 | -18.27828 | 34998 ft | 454 kts | 209° |
| 2026-04-29 05:38 | 26.98779 | -18.30740 | 35014 ft | 453 kts | 209° |
| 2026-04-29 05:39 | 26.93030 | -18.33669 | 35002 ft | 453 kts | 209° |
| 2026-04-29 05:39 | 26.87289 | -18.36593 | 34999 ft | 453 kts | 209° |
| 2026-04-29 05:40 | 26.81576 | -18.39499 | 34998 ft | 453 kts | 210° |
| 2026-04-29 05:40 | 26.75819 | -18.42425 | 35005 ft | 453 kts | 210° |
| 2026-04-29 05:41 | 26.70105 | -18.45326 | 35006 ft | 453 kts | 210° |
| 2026-04-29 05:41 | 26.64363 | -18.48237 | 35006 ft | 453 kts | 210° |
| 2026-04-29 05:42 | 26.58605 | -18.51154 | 35005 ft | 453 kts | 210° |
| 2026-04-29 05:42 | 26.52882 | -18.54050 | 35007 ft | 453 kts | 210° |
| 2026-04-29 05:43 | 26.47153 | -18.56946 | 35007 ft | 453 kts | 210° |
| 2026-04-29 05:43 | 26.41409 | -18.59845 | 35018 ft | 452 kts | 210° |
| 2026-04-29 05:44 | 26.35700 | -18.62724 | 35036 ft | 453 kts | 210° |
| 2026-04-29 05:44 | 26.29937 | -18.65624 | 35034 ft | 453 kts | 210° |
| 2026-04-29 05:45 | 26.24229 | -18.68485 | 35034 ft | 453 kts | 210° |
| 2026-04-29 05:45 | 26.18478 | -18.71370 | 35034 ft | 453 kts | 210° |
| 2026-04-29 05:46 | 26.13690 | -18.73773 | 35036 ft | 453 kts | 210° |
| 2026-04-29 05:46 | 26.07947 | -18.76654 | 35037 ft | 453 kts | 210° |
| 2026-04-29 05:47 | 26.02223 | -18.79523 | 35037 ft | 453 kts | 210° |
| 2026-04-29 05:47 | 25.96468 | -18.82403 | 35034 ft | 453 kts | 210° |
| 2026-04-29 05:48 | 25.90933 | -18.85613 | 35017 ft | 447 kts | 217° |
| 2026-04-29 05:48 | 25.85732 | -18.89344 | 35036 ft | 445 kts | 219° |
| 2026-04-29 05:49 | 25.80543 | -18.93152 | 35037 ft | 446 kts | 219° |
| 2026-04-29 05:49 | 25.75379 | -18.96888 | 35037 ft | 446 kts | 218° |
| 2026-04-29 05:50 | 25.70182 | -19.00615 | 35039 ft | 446 kts | 218° |
| 2026-04-29 05:50 | 25.64959 | -19.04351 | 35040 ft | 446 kts | 218° |
| 2026-04-29 05:51 | 25.59755 | -19.08069 | 35039 ft | 446 kts | 218° |
| 2026-04-29 05:51 | 25.54530 | -19.11798 | 35032 ft | 445 kts | 219° |
| 2026-04-29 05:52 | 25.49351 | -19.15491 | 35037 ft | 443 kts | 219° |
| 2026-04-29 05:52 | 25.44197 | -19.19164 | 35038 ft | 443 kts | 219° |
| 2026-04-29 05:53 | 25.39007 | -19.22858 | 35040 ft | 443 kts | 219° |
| 2026-04-29 05:53 | 25.33843 | -19.26530 | 35040 ft | 443 kts | 219° |
| 2026-04-29 05:54 | 25.28654 | -19.30215 | 35040 ft | 443 kts | 219° |
| 2026-04-29 05:54 | 25.23455 | -19.33902 | 35031 ft | 443 kts | 219° |
| 2026-04-29 05:55 | 25.18282 | -19.37556 | 35039 ft | 443 kts | 219° |
| 2026-04-29 05:55 | 25.13085 | -19.41228 | 35048 ft | 443 kts | 219° |
| 2026-04-29 05:56 | 25.07893 | -19.44899 | 35048 ft | 443 kts | 219° |
| 2026-04-29 05:56 | 25.02698 | -19.48569 | 35037 ft | 442 kts | 219° |
| 2026-04-29 05:57 | 24.97540 | -19.52199 | 35032 ft | 442 kts | 219° |
| 2026-04-29 05:57 | 24.92350 | -19.55834 | 35024 ft | 441 kts | 219° |
| 2026-04-29 05:58 | 24.87183 | -19.59451 | 35041 ft | 441 kts | 219° |
| 2026-04-29 05:58 | 24.82005 | -19.63073 | 35042 ft | 441 kts | 219° |
| 2026-04-29 05:59 | 24.76829 | -19.66692 | 35042 ft | 441 kts | 219° |
| 2026-04-29 05:59 | 24.71677 | -19.70290 | 35042 ft | 441 kts | 219° |
| 2026-04-29 06:00 | 24.66497 | -19.73904 | 35044 ft | 441 kts | 219° |
| 2026-04-29 06:00 | 24.61332 | -19.77503 | 35045 ft | 441 kts | 219° |
| 2026-04-29 06:01 | 24.56162 | -19.81102 | 35041 ft | 439 kts | 220° |